Time;durP1;ratioP1;P1;durP2;ratioP2;P2;SDS_P1;SDS_P2;PMS_P1;PMS_P2;Temp;Humidity;BMP_temperature;BMP_pressure;BME280_temperature;BME280_humidity;BME280_pressure;Samples;Min_cycle;Max_cycle;Signal;HPM_P1;HPM_P2
2022/07/24 00:01:36;;;;;;;8.63;7.20;;;;;;;26.47;58.21;100580.69;5092363;28;20179;-62
2022/07/24 00:04:02;;;;;;;9.30;7.30;;;;;;;26.49;58.86;100595.59;5093218;28;20279;-62
2022/07/24 00:06:28;;;;;;;8.40;7.50;;;;;;;26.48;58.69;100588.97;5091286;28;20692;-62
2022/07/24 00:08:53;;;;;;;9.40;7.73;;;;;;;26.45;58.64;100589.78;5093198;28;20468;-62
2022/07/24 00:11:19;;;;;;;8.80;7.63;;;;;;;26.44;58.85;100590.25;5092913;28;20197;-62
2022/07/24 00:13:44;;;;;;;13.80;8.70;;;;;;;26.44;58.50;100591.06;5092450;28;20206;-62
2022/07/24 00:16:10;;;;;;;11.43;7.60;;;;;;;26.44;58.81;100588.16;5090896;28;20183;-62
2022/07/24 00:18:35;;;;;;;9.53;8.53;;;;;;;26.44;58.25;100596.03;5091640;28;20552;-62
2022/07/24 00:21:01;;;;;;;8.77;7.70;;;;;;;26.43;58.14;100585.69;5091056;28;20205;-62
2022/07/24 00:23:26;;;;;;;7.90;6.80;;;;;;;26.45;58.28;100589.00;5091305;28;20485;-62
2022/07/24 00:25:52;;;;;;;9.83;8.00;;;;;;;26.42;58.16;100581.97;5091133;28;20181;-62
2022/07/24 00:28:17;;;;;;;9.67;7.87;;;;;;;26.39;58.20;100582.81;5091298;28;20235;-62
2022/07/24 00:30:43;;;;;;;10.20;8.40;;;;;;;26.38;58.08;100578.28;5092543;28;20154;-62
2022/07/24 00:33:08;;;;;;;9.53;7.93;;;;;;;26.39;58.05;100577.03;5092452;28;20174;-62
2022/07/24 00:35:34;;;;;;;9.80;8.00;;;;;;;26.39;58.21;100573.34;5092426;28;20181;-62
2022/07/24 00:38:00;;;;;;;9.03;7.37;;;;;;;26.39;58.16;100571.25;5091200;28;20206;-62
2022/07/24 00:40:26;;;;;;;11.00;7.23;;;;;;;26.40;58.51;100572.88;5091175;28;20469;-62
2022/07/24 00:42:51;;;;;;;10.57;8.43;;;;;;;26.41;58.23;100562.97;5090682;28;20637;-62
2022/07/24 00:45:17;;;;;;;8.53;7.57;;;;;;;26.42;58.12;100563.78;5091937;28;20172;-62
2022/07/24 00:47:42;;;;;;;12.47;8.33;;;;;;;26.41;57.91;100560.06;5092229;28;20537;-62
2022/07/24 00:50:08;;;;;;;9.13;7.20;;;;;;;26.42;57.84;100561.72;5092322;28;20706;-62
2022/07/24 00:52:34;;;;;;;9.93;7.27;;;;;;;26.41;57.87;100567.94;5092021;28;20518;-62
2022/07/24 00:54:59;;;;;;;8.87;7.37;;;;;;;26.41;58.22;100560.06;5084121;28;20222;-62
2022/07/24 00:57:24;;;;;;;9.93;7.10;;;;;;;26.42;57.97;100569.56;5072039;28;20171;-62
2022/07/24 00:59:51;;;;;;;8.53;7.67;;;;;;;26.41;57.89;100556.34;5075441;28;20189;-62
2022/07/24 01:02:16;;;;;;;12.20;8.70;;;;;;;26.40;57.51;100557.59;5071983;28;20699;-62
2022/07/24 01:04:42;;;;;;;10.03;7.67;;;;;;;26.40;58.22;100558.41;5089435;28;20405;-62
2022/07/24 01:07:07;;;;;;;11.63;7.90;;;;;;;26.39;57.56;100553.88;5091808;28;20205;-62
2022/07/24 01:09:32;;;;;;;8.80;7.50;;;;;;;26.40;57.70;100558.41;5091730;28;20623;-62
2022/07/24 01:11:58;;;;;;;9.47;7.80;;;;;;;26.40;57.81;100554.72;5091764;28;20198;-62
2022/07/24 01:14:24;;;;;;;9.57;7.47;;;;;;;26.39;57.38;100553.88;5090214;28;20198;-62
2022/07/24 01:16:49;;;;;;;8.63;7.43;;;;;;;26.39;57.55;100553.88;5091726;28;20605;-62
2022/07/24 01:19:15;;;;;;;12.63;7.93;;;;;;;26.39;57.93;100553.88;5090396;28;20181;-62
2022/07/24 01:21:50;;;;;;;10.00;7.33;;;;;;;26.39;57.27;100555.97;5091036;28;20514;-62
2022/07/24 01:24:16;;;;;;;11.90;7.47;;;;;;;26.38;57.61;100555.13;5091454;28;20175;-62
2022/07/24 01:26:41;;;;;;;10.30;7.43;;;;;;;26.36;57.12;100554.75;5091387;28;20429;-62
2022/07/24 01:29:06;;;;;;;10.27;7.70;;;;;;;26.37;57.35;100556.38;5091262;28;20177;-62
2022/07/24 01:31:32;;;;;;;8.70;7.67;;;;;;;26.37;57.73;100556.38;5090877;28;20185;-62
2022/07/24 01:33:57;;;;;;;10.83;8.03;;;;;;;26.37;57.29;100559.28;5091438;28;20205;-62
2022/07/24 01:36:23;;;;;;;10.77;7.17;;;;;;;26.38;57.43;100554.28;5091418;28;20637;-62
2022/07/24 01:38:48;;;;;;;9.30;7.97;;;;;;;26.36;57.10;100548.97;5091381;28;20181;-62
2022/07/24 01:41:13;;;;;;;10.00;8.17;;;;;;;26.36;57.14;100557.66;5091260;28;20170;-62
2022/07/24 01:43:39;;;;;;;9.17;7.83;;;;;;;26.36;57.15;100554.75;5090400;28;20174;-62
2022/07/24 01:46:04;;;;;;;9.13;7.40;;;;;;;26.36;57.66;100557.66;5088877;28;20200;-62
2022/07/24 01:48:30;;;;;;;8.80;7.40;;;;;;;26.35;56.82;100555.97;5089540;28;20544;-62
2022/07/24 01:50:55;;;;;;;9.70;7.73;;;;;;;26.36;57.12;100557.66;5089179;28;20174;-62
2022/07/24 01:53:21;;;;;;;7.77;6.90;;;;;;;26.36;57.48;100560.53;5089056;28;20178;-62
2022/07/24 01:55:49;;;;;;;9.03;7.67;;;;;;;26.35;57.49;100563.84;5078073;28;20657;-62
2022/07/24 01:58:14;;;;;;;8.80;7.27;;;;;;;26.34;57.54;100563.03;5089068;28;20653;-62
2022/07/24 02:00:40;;;;;;;11.37;8.07;;;;;;;26.34;57.68;100560.13;5089994;28;20501;-62
2022/07/24 02:03:06;;;;;;;9.30;7.50;;;;;;;26.34;57.33;100568.81;5090904;28;20175;-62
2022/07/24 02:05:31;;;;;;;12.93;8.20;;;;;;;26.33;57.10;100564.28;5091014;28;20174;-62
2022/07/24 02:07:58;;;;;;;11.33;8.10;;;;;;;26.33;57.48;100560.56;5090885;28;20930;-62
2022/07/24 02:10:24;;;;;;;9.00;7.50;;;;;;;26.34;57.08;100568.00;5090714;28;20365;-62
2022/07/24 02:12:49;;;;;;;8.17;7.37;;;;;;;26.34;56.84;100562.22;5090628;28;20969;-62
2022/07/24 02:15:15;;;;;;;10.50;8.17;;;;;;;26.33;57.56;100549.81;5090902;28;20201;-62
2022/07/24 02:17:45;;;;;;;8.40;7.20;;;;;;;26.33;56.80;100555.59;5090805;28;20585;-62
2022/07/24 02:20:11;;;;;;;9.17;7.00;;;;;;;26.32;57.01;100558.91;5090858;28;20259;-62
2022/07/24 02:22:36;;;;;;;8.07;7.10;;;;;;;26.33;56.98;100564.28;5090693;28;20433;-62
2022/07/24 02:25:02;;;;;;;8.77;7.60;;;;;;;26.32;56.83;100564.69;5090777;28;20315;-62
2022/07/24 02:27:27;;;;;;;8.40;7.00;;;;;;;26.32;57.21;100564.69;5089085;28;20173;-62
2022/07/24 02:29:53;;;;;;;9.63;8.00;;;;;;;26.31;56.86;100563.06;5090675;28;20641;-62
2022/07/24 02:32:18;;;;;;;9.43;7.80;;;;;;;26.31;57.27;100560.16;5090743;28;20174;-62
2022/07/24 02:34:43;;;;;;;9.27;7.30;;;;;;;26.30;57.02;100556.44;5090654;28;20256;-62
2022/07/24 02:37:09;;;;;;;9.93;6.97;;;;;;;26.30;57.03;100564.31;5090598;28;20170;-62
2022/07/24 02:39:34;;;;;;;9.93;7.27;;;;;;;26.30;57.37;100561.44;5090229;28;20653;-62
2022/07/24 02:42:00;;;;;;;9.30;7.67;;;;;;;26.30;57.33;100567.22;5090525;28;20158;-62
2022/07/24 02:44:25;;;;;;;9.63;7.37;;;;;;;26.28;56.62;100567.63;5090699;28;20167;-62
2022/07/24 02:46:50;;;;;;;11.03;8.73;;;;;;;26.27;56.84;100568.88;5090490;28;20178;-62
2022/07/24 02:49:16;;;;;;;8.23;7.17;;;;;;;26.28;56.79;100570.53;5090599;28;20175;-62
2022/07/24 02:51:41;;;;;;;8.60;7.23;;;;;;;26.27;56.96;100568.88;5090755;28;20179;-62
2022/07/24 02:54:07;;;;;;;8.90;7.47;;;;;;;26.27;56.63;100579.63;5089875;28;20194;-62
2022/07/24 02:56:32;;;;;;;8.83;7.43;;;;;;;26.26;56.60;100573.03;5072611;28;20183;-62
2022/07/24 02:58:58;;;;;;;7.70;6.60;;;;;;;26.26;56.69;100567.25;5094054;28;20239;-62
2022/07/24 03:01:24;;;;;;;8.30;6.60;;;;;;;26.26;57.20;100578.84;5094304;28;20210;-62
2022/07/24 03:03:49;;;;;;;9.90;7.60;;;;;;;26.25;56.87;100576.34;5094281;28;20443;-62
2022/07/24 03:06:15;;;;;;;10.17;7.60;;;;;;;26.24;57.21;100569.72;5092697;28;20677;-62
2022/07/24 03:08:40;;;;;;;10.20;7.80;;;;;;;26.25;57.05;100567.66;5092331;28;20644;-62
2022/07/24 03:11:05;;;;;;;7.93;7.13;;;;;;;26.24;57.07;100574.72;5092548;28;20613;-62
2022/07/24 03:13:31;;;;;;;8.37;7.43;;;;;;;26.24;56.55;100575.53;5092485;28;20170;-62
2022/07/24 03:15:56;;;;;;;8.10;7.30;;;;;;;26.25;56.96;100579.25;5092476;28;20166;-62
2022/07/24 03:18:22;;;;;;;8.13;6.80;;;;;;;26.24;56.83;100580.50;5092605;28;20436;-62
2022/07/24 03:20:47;;;;;;;8.77;7.00;;;;;;;26.24;56.95;100581.31;5093115;28;20167;-62
2022/07/24 03:23:13;;;;;;;8.80;7.10;;;;;;;26.23;56.80;100579.69;5093592;28;20175;-62
2022/07/24 03:25:38;;;;;;;11.60;7.60;;;;;;;26.23;56.70;100590.41;5093654;28;20545;-62
2022/07/24 03:28:06;;;;;;;9.30;8.10;;;;;;;26.21;56.88;100578.47;5093847;28;20175;-62
2022/07/24 03:30:32;;;;;;;9.73;6.93;;;;;;;26.20;57.06;100580.50;5093724;28;20224;-62
2022/07/24 03:32:57;;;;;;;10.10;7.60;;;;;;;26.20;56.48;100585.50;5093815;28;20817;-62
2022/07/24 03:35:22;;;;;;;8.77;7.77;;;;;;;26.19;56.73;100581.78;5093535;28;20619;-62
2022/07/24 03:37:48;;;;;;;9.23;7.60;;;;;;;26.17;56.79;100583.44;5092929;28;20166;-62
2022/07/24 03:40:13;;;;;;;8.20;7.33;;;;;;;26.14;56.73;100585.13;5091165;28;20190;-62
2022/07/24 03:42:39;;;;;;;10.60;8.00;;;;;;;26.15;56.29;100580.97;5091953;28;20170;-62
2022/07/24 03:45:05;;;;;;;9.23;7.53;;;;;;;26.16;56.70;100581.81;5090991;28;20151;-62
2022/07/24 03:47:30;;;;;;;9.03;7.90;;;;;;;26.17;56.28;100583.44;5091658;28;20264;-62
2022/07/24 03:49:56;;;;;;;10.87;7.90;;;;;;;26.17;56.51;100586.34;5090026;28;21200;-62
2022/07/24 03:52:21;;;;;;;9.83;7.90;;;;;;;26.17;56.73;100580.56;5091073;28;20178;-62
2022/07/24 03:54:47;;;;;;;13.13;7.80;;;;;;;26.17;56.30;100580.56;5086532;28;20316;-62
2022/07/24 03:57:12;;;;;;;8.93;7.50;;;;;;;26.16;57.02;100590.50;5073017;28;20174;-62
2022/07/24 03:59:38;;;;;;;9.23;7.13;;;;;;;26.15;56.72;100595.44;5088052;28;20170;-62
2022/07/24 04:02:03;;;;;;;8.90;6.73;;;;;;;26.15;56.76;100595.44;5093384;28;20177;-62
2022/07/24 04:04:29;;;;;;;10.87;7.80;;;;;;;26.15;56.73;100595.44;5092989;28;20170;-62
2022/07/24 04:06:54;;;;;;;8.70;6.83;;;;;;;26.16;56.26;100596.28;5092767;28;20215;-62
2022/07/24 04:09:20;;;;;;;8.47;7.50;;;;;;;26.14;56.72;100599.59;5092598;28;20228;-62
2022/07/24 04:11:46;;;;;;;8.17;7.30;;;;;;;26.14;56.37;100599.59;5092824;28;20653;-62
2022/07/24 04:14:11;;;;;;;9.27;7.30;;;;;;;26.15;56.36;100604.13;5092706;28;20206;-62
2022/07/24 04:16:37;;;;;;;8.57;7.30;;;;;;;26.15;56.50;100617.78;5092859;28;20412;-62
2022/07/24 04:19:02;;;;;;;9.57;8.50;;;;;;;26.15;56.12;100612.00;5092920;28;20178;-62
2022/07/24 04:21:28;;;;;;;10.00;7.77;;;;;;;26.15;56.65;100612.81;5093192;28;20258;-62
2022/07/24 04:23:53;;;;;;;10.37;8.27;;;;;;;26.14;56.44;100622.75;5092527;28;20243;-62
2022/07/24 04:26:19;;;;;;;9.43;7.77;;;;;;;26.14;56.07;100619.84;5092843;28;20178;-62
2022/07/24 04:28:44;;;;;;;10.93;7.17;;;;;;;26.13;56.49;100621.09;5092733;28;20167;-62
2022/07/24 04:31:10;;;;;;;9.47;7.60;;;;;;;26.13;56.25;100621.09;5092194;28;20167;-62
2022/07/24 04:33:36;;;;;;;8.90;8.00;;;;;;;26.13;56.03;100626.06;5090913;28;20167;-63
2022/07/24 04:36:03;;;;;;;8.57;7.70;;;;;;;26.12;56.43;100618.63;5091034;28;20465;-62
2022/07/24 04:38:29;;;;;;;8.30;7.40;;;;;;;26.12;56.26;100619.47;5089537;28;20174;-62
2022/07/24 04:40:54;;;;;;;10.10;8.07;;;;;;;26.13;56.51;100615.31;5091745;28;20760;-62
2022/07/24 04:43:19;;;;;;;10.10;7.60;;;;;;;26.14;56.37;100619.06;5091127;28;20167;-63
2022/07/24 04:45:45;;;;;;;9.47;7.53;;;;;;;26.14;56.41;100619.06;5092135;28;20178;-63
2022/07/24 04:48:10;;;;;;;10.33;7.27;;;;;;;26.16;56.43;100626.06;5092287;28;20179;-62
2022/07/24 04:50:36;;;;;;;8.50;6.97;;;;;;;26.16;56.16;100628.97;5092161;28;20174;-62
2022/07/24 04:53:01;;;;;;;9.20;7.10;;;;;;;26.17;56.16;100623.97;5092354;28;20848;-62
2022/07/24 04:55:26;;;;;;;8.60;7.10;;;;;;;26.17;56.35;100621.06;5079999;28;20691;-62
2022/07/24 04:57:52;;;;;;;8.60;7.40;;;;;;;26.18;56.18;100628.50;5071991;28;20395;-62
2022/07/24 05:00:17;;;;;;;10.10;7.07;;;;;;;26.19;55.68;100630.19;5071637;28;20220;-62
2022/07/24 05:02:43;;;;;;;11.30;7.97;;;;;;;26.19;56.14;100625.19;5072952;28;20175;-62
2022/07/24 05:05:08;;;;;;;10.27;8.03;;;;;;;26.19;55.91;100624.38;5091546;28;20539;-62
2022/07/24 05:07:34;;;;;;;9.60;7.87;;;;;;;26.19;55.85;100624.38;5092020;28;20194;-62
2022/07/24 05:09:59;;;;;;;7.77;6.97;;;;;;;26.18;56.01;100626.44;5091271;28;20588;-62
2022/07/24 05:12:25;;;;;;;8.23;7.43;;;;;;;26.19;55.70;100630.19;5092147;28;20174;-62
2022/07/24 05:14:50;;;;;;;8.20;7.10;;;;;;;26.18;56.22;100631.41;5090818;28;20714;-63
2022/07/24 05:17:16;;;;;;;10.30;8.07;;;;;;;26.17;55.78;100624.81;5091817;28;20171;-63
2022/07/24 05:19:41;;;;;;;9.10;7.47;;;;;;;26.17;55.73;100630.59;5090837;28;20179;-63
2022/07/24 05:22:07;;;;;;;10.53;7.80;;;;;;;26.16;56.05;100631.84;5091736;28;20186;-63
2022/07/24 05:24:32;;;;;;;8.40;6.87;;;;;;;26.15;56.12;100626.47;5087172;28;20230;-63
2022/07/24 05:26:57;;;;;;;8.50;7.60;;;;;;;26.15;55.78;100629.38;5077909;28;20553;-62
2022/07/24 05:29:23;;;;;;;9.07;7.33;;;;;;;26.15;55.86;100630.19;5091625;28;20641;-62
2022/07/24 05:31:49;;;;;;;8.43;7.53;;;;;;;26.14;56.20;100628.53;5091556;28;20167;-62
2022/07/24 05:34:14;;;;;;;9.97;8.00;;;;;;;26.14;56.12;100628.53;5091240;28;20194;-62
2022/07/24 05:36:39;;;;;;;8.73;7.27;;;;;;;26.14;56.50;100631.44;5091501;28;20197;-62
2022/07/24 05:39:05;;;;;;;7.90;6.73;;;;;;;26.14;56.14;100631.44;5091039;28;20170;-62
2022/07/24 05:41:31;;;;;;;10.13;7.70;;;;;;;26.11;56.49;100631.47;5091494;28;20500;-62
2022/07/24 05:43:56;;;;;;;10.90;8.00;;;;;;;26.09;56.79;100634.78;5090882;28;20622;-62
2022/07/24 05:46:22;;;;;;;10.40;8.33;;;;;;;26.07;56.70;100634.38;5091211;28;20510;-62
2022/07/24 05:48:47;;;;;;;8.57;7.67;;;;;;;26.07;56.11;100631.50;5090747;28;20186;-62
2022/07/24 05:51:13;;;;;;;8.93;7.83;;;;;;;26.06;56.19;100632.75;5091449;28;20185;-62
2022/07/24 05:53:38;;;;;;;11.20;8.97;;;;;;;26.05;56.36;100628.19;5090727;28;20174;-62
2022/07/24 05:56:04;;;;;;;9.43;7.93;;;;;;;26.07;56.78;100627.75;5091199;28;20190;-62
2022/07/24 05:58:29;;;;;;;12.03;8.13;;;;;;;26.05;56.74;100624.50;5090419;28;20219;-62
2022/07/24 06:00:55;;;;;;;11.70;9.07;;;;;;;26.05;56.51;100624.50;5089929;28;20178;-62
2022/07/24 06:03:20;;;;;;;9.67;8.30;;;;;;;26.04;56.28;100623.66;5090139;28;20174;-62
2022/07/24 06:05:46;;;;;;;11.17;8.50;;;;;;;26.04;56.81;100628.63;5089833;28;20565;-62
2022/07/24 06:08:11;;;;;;;9.67;7.70;;;;;;;26.05;56.68;100624.50;5089694;28;20178;-62
2022/07/24 06:10:37;;;;;;;11.67;8.70;;;;;;;26.05;56.29;100631.09;5089526;28;20229;-62
2022/07/24 06:13:02;;;;;;;11.20;8.80;;;;;;;26.05;56.83;100621.59;5090030;28;20583;-62
2022/07/24 06:15:28;;;;;;;9.83;8.80;;;;;;;26.02;56.87;100622.44;5090956;28;20206;-62
2022/07/24 06:17:54;;;;;;;9.23;8.30;;;;;;;26.04;57.08;100629.44;5091073;28;20793;-62
2022/07/24 06:20:19;;;;;;;10.93;8.97;;;;;;;26.06;56.67;100629.03;5090849;28;20416;-62
2022/07/24 06:22:45;;;;;;;12.20;9.23;;;;;;;26.04;56.94;100617.88;5089328;28;20228;-62
2022/07/24 06:25:10;;;;;;;10.93;8.90;;;;;;;26.02;56.94;100623.28;5088761;28;20174;-62
2022/07/24 06:27:42;;;;;;;9.07;8.13;;;;;;;26.02;57.21;100614.59;5088756;28;20286;-62
2022/07/24 06:30:18;;;;;;;11.93;9.30;;;;;;;26.01;56.81;100626.56;5089835;28;20170;-62
2022/07/24 06:32:44;;;;;;;10.53;9.00;;;;;;;26.03;56.94;100627.81;5093093;28;20424;-62
2022/07/24 06:35:10;;;;;;;9.83;8.10;;;;;;;25.99;57.28;100615.41;5092680;28;20958;-62
2022/07/24 06:37:36;;;;;;;14.37;9.33;;;;;;;25.97;57.06;100629.50;5094294;28;20587;-62
2022/07/24 06:40:01;;;;;;;12.60;8.87;;;;;;;25.99;57.44;100626.19;5094552;28;20427;-62
2022/07/24 06:42:27;;;;;;;9.40;8.40;;;;;;;26.00;57.03;100622.84;5095060;28;20245;-62
2022/07/24 06:44:52;;;;;;;11.23;8.67;;;;;;;26.01;56.83;100621.63;5094834;28;20225;-62
2022/07/24 06:47:18;;;;;;;11.47;8.77;;;;;;;26.03;57.00;100626.97;5094542;28;20162;-62
2022/07/24 06:49:44;;;;;;;13.03;8.70;;;;;;;26.01;57.41;100618.72;5094459;28;20545;-62
2022/07/24 06:52:09;;;;;;;11.30;8.23;;;;;;;26.03;57.00;100621.19;5094274;28;20193;-62
2022/07/24 06:54:34;;;;;;;11.30;9.13;;;;;;;26.01;56.94;100623.69;5090028;28;20203;-62
2022/07/24 06:57:00;;;;;;;11.50;9.03;;;;;;;25.99;57.32;100621.22;5074014;28;20171;-62
2022/07/24 06:59:25;;;;;;;12.20;8.53;;;;;;;25.98;57.60;100622.47;5072795;28;20550;-62
2022/07/24 07:01:51;;;;;;;11.13;9.03;;;;;;;25.99;57.29;100624.09;5074351;28;20152;-62
2022/07/24 07:04:17;;;;;;;13.30;8.93;;;;;;;25.98;57.30;100622.47;5075899;28;20175;-62
2022/07/24 07:06:42;;;;;;;12.70;9.23;;;;;;;25.87;57.29;100618.78;5093462;28;20216;-62
2022/07/24 07:09:07;;;;;;;11.03;8.23;;;;;;;25.93;56.66;100622.91;5091138;28;20592;-62
2022/07/24 07:11:33;;;;;;;10.90;8.60;;;;;;;25.92;56.79;100621.28;5092219;28;20182;-62
2022/07/24 07:13:58;;;;;;;13.03;8.57;;;;;;;25.96;56.62;100627.88;5091965;28;20194;-62
2022/07/24 07:16:24;;;;;;;11.80;8.30;;;;;;;25.97;56.48;100625.78;5091858;28;20166;-62
2022/07/24 07:18:50;;;;;;;10.10;8.33;;;;;;;25.90;56.41;100629.50;5092034;28;20174;-62
2022/07/24 07:21:15;;;;;;;12.10;8.47;;;;;;;25.89;57.03;100624.16;5093917;28;20167;-62
2022/07/24 07:23:40;;;;;;;9.90;8.50;;;;;;;25.85;56.74;100626.25;5093967;28;20525;-62
2022/07/24 07:26:06;;;;;;;10.70;8.40;;;;;;;25.84;55.97;100618.81;5076359;28;20230;-62
2022/07/24 07:28:32;;;;;;;10.10;7.93;;;;;;;25.87;56.32;100626.63;5093243;28;20287;-62
2022/07/24 07:30:57;;;;;;;10.73;8.20;;;;;;;25.90;56.44;100620.81;5093911;28;20178;-62
2022/07/24 07:33:23;;;;;;;9.17;7.73;;;;;;;25.96;56.20;100619.19;5094013;28;20200;-63
2022/07/24 07:35:49;;;;;;;9.07;8.03;;;;;;;25.99;56.52;100621.22;5093358;28;20209;-63
2022/07/24 07:38:15;;;;;;;11.80;8.70;;;;;;;25.99;56.18;100615.41;5093489;28;20601;-63
2022/07/24 07:40:40;;;;;;;12.70;9.33;;;;;;;25.99;56.13;100618.31;5093417;28;20552;-63
2022/07/24 07:43:05;;;;;;;10.13;8.80;;;;;;;25.99;56.27;100614.63;5091269;28;20170;-63
2022/07/24 07:45:31;;;;;;;9.47;7.43;;;;;;;26.01;56.09;100612.09;5091202;28;20167;-62
2022/07/24 07:47:56;;;;;;;11.60;8.73;;;;;;;26.00;55.76;100610.47;5092144;28;20520;-62
2022/07/24 07:50:22;;;;;;;10.60;8.73;;;;;;;26.00;55.58;100605.47;5091133;28;20166;-62
2022/07/24 07:52:47;;;;;;;11.50;8.40;;;;;;;25.93;55.70;100608.44;5091374;28;20162;-62
2022/07/24 07:55:13;;;;;;;10.23;8.10;;;;;;;25.98;56.18;100604.25;5091624;28;20214;-62
2022/07/24 07:57:41;;;;;;;11.07;8.63;;;;;;;25.99;55.54;100603.84;5091790;28;20673;-62
2022/07/24 08:00:07;;;;;;;17.00;8.97;;;;;;;25.99;55.45;100606.75;5091693;28;20178;-62
2022/07/24 08:02:33;;;;;;;10.67;8.13;;;;;;;26.03;55.62;100615.38;5091804;28;21069;-62
2022/07/24 08:04:58;;;;;;;11.23;8.10;;;;;;;26.02;55.90;100605.06;5091554;28;20416;-63
2022/07/24 08:07:24;;;;;;;9.17;7.43;;;;;;;25.99;55.33;100600.16;5091676;28;20190;-63
2022/07/24 08:09:49;;;;;;;9.33;7.93;;;;;;;26.00;55.41;100611.28;5091496;28;20295;-63
2022/07/24 08:12:15;;;;;;;10.60;8.57;;;;;;;25.98;55.26;100610.06;5091285;28;20171;-63
2022/07/24 08:14:40;;;;;;;9.40;7.90;;;;;;;25.76;55.57;100608.53;5091284;28;20259;-63
2022/07/24 08:17:05;;;;;;;9.90;7.53;;;;;;;25.89;55.42;100607.59;5091436;28;20182;-63
2022/07/24 08:19:31;;;;;;;11.67;8.13;;;;;;;25.94;55.54;100601.41;5091687;28;20174;-63
2022/07/24 08:21:56;;;;;;;11.50;8.47;;;;;;;25.96;54.19;100609.66;5091253;28;20680;-63
2022/07/24 08:24:22;;;;;;;9.40;7.80;;;;;;;25.95;54.48;100611.72;5091371;28;20177;-62
2022/07/24 08:26:48;;;;;;;10.30;7.40;;;;;;;25.82;54.54;100599.00;5091189;28;20190;-62
2022/07/24 08:29:13;;;;;;;13.33;9.10;;;;;;;25.85;55.43;100608.88;5090778;28;20629;-62
2022/07/24 08:31:38;;;;;;;8.97;8.00;;;;;;;25.94;55.36;100601.41;5090939;28;20186;-63
2022/07/24 08:34:04;;;;;;;10.47;8.77;;;;;;;26.00;54.88;100601.78;5090934;28;20549;-63
2022/07/24 08:36:29;;;;;;;9.50;7.77;;;;;;;26.02;54.51;100605.06;5091330;28;20558;-63
2022/07/24 08:38:55;;;;;;;10.13;7.53;;;;;;;26.04;54.58;100602.59;5088482;28;20204;-62
2022/07/24 08:41:20;;;;;;;10.00;7.20;;;;;;;26.05;55.02;100607.94;5091467;28;20259;-62
2022/07/24 08:43:46;;;;;;;9.70;8.30;;;;;;;26.07;54.63;100611.25;5091226;28;20193;-62
2022/07/24 08:46:11;;;;;;;8.90;7.23;;;;;;;26.06;54.49;100600.09;5090602;28;20558;-62
2022/07/24 08:48:42;;;;;;;10.37;8.80;;;;;;;26.08;54.03;100606.25;5089570;28;20231;-62
2022/07/24 08:51:07;;;;;;;11.93;8.50;;;;;;;26.08;54.12;100606.25;5089369;28;20159;-62
2022/07/24 08:53:32;;;;;;;10.50;8.75;;;;;;;26.10;54.31;100609.56;5090561;28;20441;-62
2022/07/24 08:55:58;;;;;;;12.23;9.70;;;;;;;26.06;54.21;100605.88;5075107;28;20186;-62
2022/07/24 08:58:23;;;;;;;10.30;7.80;;;;;;;26.10;54.29;100603.78;5070194;28;20190;-62
2022/07/24 09:00:49;;;;;;;9.70;7.90;;;;;;;26.11;54.36;100591.78;5084002;28;20174;-62
2022/07/24 09:03:14;;;;;;;10.83;7.97;;;;;;;26.13;54.47;100597.94;5091664;28;20178;-62
2022/07/24 09:05:56;;;;;;;11.20;8.30;;;;;;;26.12;54.33;100601.28;5092042;28;20199;-62
2022/07/24 09:08:22;;;;;;;12.93;8.67;;;;;;;26.14;54.77;100585.13;5092155;28;20219;-62
2022/07/24 09:10:59;;;;;;;10.40;8.50;;;;;;;26.16;53.97;100582.63;5090951;28;20476;-62
2022/07/24 09:13:25;;;;;;;10.97;7.87;;;;;;;26.16;54.03;100591.31;5090678;28;20284;-62
2022/07/24 09:15:51;;;;;;;11.43;8.40;;;;;;;26.17;53.99;100589.22;5090395;28;20981;-62
2022/07/24 09:18:33;;;;;;;12.00;9.03;;;;;;;26.14;54.25;100593.81;5090167;28;20431;-62
2022/07/24 09:21:00;;;;;;;10.67;8.87;;;;;;;26.18;54.11;100587.97;5091349;28;20204;-62
2022/07/24 09:23:25;;;;;;;10.00;8.30;;;;;;;26.19;54.11;100584.66;5091659;28;20972;-62
2022/07/24 09:25:52;;;;;;;10.87;8.27;;;;;;;26.21;54.85;100582.19;5075090;28;20425;-62
2022/07/24 09:28:19;;;;;;;11.40;8.30;;;;;;;26.23;54.93;100578.84;5089033;28;20186;-62
2022/07/24 09:30:45;;;;;;;9.10;8.00;;;;;;;26.21;54.60;100575.56;5091685;28;20760;-62
2022/07/24 09:33:11;;;;;;;11.20;9.23;;;;;;;26.24;54.56;100586.31;5091473;28;21059;-62
2022/07/24 09:35:43;;;;;;;13.13;8.63;;;;;;;26.25;54.28;100577.16;5090622;28;20558;-62
2022/07/24 09:38:10;;;;;;;12.93;8.60;;;;;;;26.25;54.03;100574.28;5089422;28;20280;-62
2022/07/24 09:40:41;;;;;;;13.63;9.07;;;;;;;26.24;53.92;100571.81;5089908;28;20458;-62
2022/07/24 09:43:26;;;;;;;9.80;8.00;;;;;;;26.31;54.09;100569.69;5089449;28;20693;-62
2022/07/24 09:46:04;;;;;;;8.57;7.50;;;;;;;26.33;53.55;100577.91;5089900;28;20409;-62
2022/07/24 09:48:32;;;;;;;9.20;8.20;;;;;;;26.34;53.25;100565.13;5089783;28;20441;-62
2022/07/24 09:51:01;;;;;;;10.83;8.00;;;;;;;26.35;53.02;100558.06;5090817;28;20452;-62
2022/07/24 09:53:29;;;;;;;10.63;7.67;;;;;;;26.31;53.17;100563.06;5091255;28;20463;-62
2022/07/24 09:56:03;;;;;;;11.33;8.40;;;;;;;26.38;52.22;100562.97;5091009;28;20467;-62
2022/07/24 09:58:30;;;;;;;10.93;8.40;;;;;;;26.35;52.19;100558.06;5091097;28;20400;-62
2022/07/24 10:00:56;;;;;;;9.07;8.17;;;;;;;26.33;52.48;100564.28;5091499;28;20446;-62
2022/07/24 10:03:25;;;;;;;9.67;8.20;;;;;;;26.39;51.44;100555.97;5090721;28;20405;-62
2022/07/24 10:05:54;;;;;;;9.63;7.93;;;;;;;26.36;51.30;100557.66;5088708;28;20526;-62
2022/07/24 10:08:19;;;;;;;9.10;6.90;;;;;;;26.36;51.62;100563.44;5090791;28;20423;-62
2022/07/24 10:10:45;;;;;;;11.00;7.70;;;;;;;26.36;52.06;100543.16;5088463;28;20460;-62
2022/07/24 10:13:10;;;;;;;10.87;7.90;;;;;;;26.37;52.04;100553.50;5086253;28;20181;-62
2022/07/24 10:15:37;;;;;;;11.10;8.30;;;;;;;26.34;52.16;100551.44;5087496;28;20202;-62
2022/07/24 10:18:11;;;;;;;10.60;7.50;;;;;;;26.39;52.12;100550.19;5069565;28;20653;-62
2022/07/24 10:20:40;;;;;;;12.30;7.83;;;;;;;26.41;50.65;100550.56;5088856;28;20907;-62
2022/07/24 10:23:06;;;;;;;8.53;6.90;;;;;;;26.42;51.07;100546.41;5089265;28;20416;-62
2022/07/24 10:25:52;;;;;;;10.60;6.97;;;;;;;26.41;50.25;100545.59;5089587;28;20424;-62
2022/07/24 10:28:24;;;;;;;7.60;6.80;;;;;;;26.46;49.34;100548.03;5090547;28;20174;-62
2022/07/24 10:30:50;;;;;;;8.37;7.20;;;;;;;26.42;50.59;100540.59;5091033;28;20401;-62
2022/07/24 10:33:15;;;;;;;10.03;7.40;;;;;;;26.48;49.27;100539.72;5089379;28;20416;-62
2022/07/24 10:35:41;;;;;;;8.27;7.33;;;;;;;26.50;50.27;100545.91;5090556;28;20193;-62
2022/07/24 10:38:22;;;;;;;8.30;7.40;;;;;;;26.49;49.93;100541.34;5090218;28;20235;-62
2022/07/24 10:40:54;;;;;;;10.20;7.17;;;;;;;26.50;50.03;100536.41;5089647;28;20181;-62
2022/07/24 10:43:20;;;;;;;12.53;7.20;;;;;;;26.55;49.65;100535.94;5073081;28;20419;-62
2022/07/24 10:46:06;;;;;;;9.50;7.70;;;;;;;26.49;50.00;100529.78;5090673;28;20487;-62
2022/07/24 10:48:33;;;;;;;8.40;6.67;;;;;;;26.51;50.89;100535.16;5090157;28;20239;-62
2022/07/24 10:51:07;;;;;;;8.47;7.20;;;;;;;26.54;51.09;100532.19;5088143;28;20792;-62
2022/07/24 10:53:35;;;;;;;11.23;7.10;;;;;;;26.53;50.29;100535.53;5090463;28;20477;-62
2022/07/24 10:56:23;;;;;;;8.53;6.73;;;;;;;26.58;48.93;100512.75;5090268;28;20475;-62
2022/07/24 10:58:58;;;;;;;9.23;7.20;;;;;;;26.54;49.55;100516.91;5090346;28;20527;-62
2022/07/24 11:01:45;;;;;;;10.73;7.20;;;;;;;26.55;50.30;100510.69;5090550;28;20400;-62
2022/07/24 11:04:21;;;;;;;9.77;7.30;;;;;;;26.61;49.65;100511.91;5090669;28;20408;-62
2022/07/24 11:06:48;;;;;;;9.30;6.77;;;;;;;26.58;50.05;100509.03;5089690;28;20438;-62
2022/07/24 11:09:15;;;;;;;11.93;7.73;;;;;;;26.75;47.89;100513.81;5090093;28;20563;-62
2022/07/24 11:11:52;;;;;;;12.23;7.17;;;;;;;26.68;48.36;100503.13;5090011;28;20416;-62
2022/07/24 11:14:24;;;;;;;7.80;7.00;;;;;;;26.61;49.60;100508.16;5089978;28;20460;-62
2022/07/24 11:16:50;;;;;;;8.30;6.67;;;;;;;26.55;49.33;100502.00;5091031;28;20416;-62
2022/07/24 11:19:16;;;;;;;8.50;6.50;;;;;;;26.59;48.97;100499.91;5092687;28;20419;-62